Airfield :
LOGIN :

Register | Disclaimer

   EN    FR    IT 

 










Legend :    VFR   Marginal VFR   IFR   Intensive IFR   Very Intensive IFR
Visi :
Ceiling :
>= 8 km
>= 3000ft
5 to 8 km
1000 to 3000 ft
1500m to 5 km
500 to 1000 ft
800 to 1500m
200 to 500 ft
< 800m
< 200 ft
Symbols :   Thunderstorms  Fog  Heavy snow  Heavy precipitations  Wind > 20 kt
SIGMETs :     Misc.  Thunderstorms  Icing  Turbulence  Mountain Waves  Volcanic Ashes






- Airport Elevation : 19 ft
- IATA code : LCY


EGLC - London City

CURRENT METAR :
  • 101120Z AUTO 20016KT 9999 -RA BKN017 10/07 Q1015

EXPIRED METARs :
  • 101050Z AUTO 20015G26KT 170V240 9999 -RA OVC019 10/06 Q1015
  • 101020Z AUTO 20014KT 170V240 9999 BKN022 10/06 Q1016
  • 100950Z AUTO 21014KT 160V240 9999 BKN021 BKN029 10/06 Q1017
  • 100920Z AUTO 21012KT 180V240 9999 SCT021 BKN029 10/06 Q1018
  • 100850Z AUTO 20011KT 170V250 9999 FEW020 BKN032 09/05 Q1018

TAF TAF EGLC
Valid from the 10 at 09:00 until the 10 at 18:00 UTC


100806Z 1009/1018 24005KT 9999 FEW030
BECMG 1009/1010 19015G25KT
TEMPO 1010/1018 20020G36KT
TEMPO 1011/1018 7000 RA BKN014
ATIS : +44 20 7646 0224



MET'MAP, your aeronautical weather chart ! - Copyright ORBIFLY December 2007 - Disclaimer

ORBIFLY MET'MAP TEAM :

Programming & Development : Alexandra Zaïnal
Concept & original design : Baudouin d'Aumeries
Assistance for programming : Marc-Olivier Méhu
Technical & hardware support : Manuel Goepfert

Contact : metmap@orbifly.com




SOURCES & CREDITS :

   NOAA